GKT weather

Gatlinburg-Pigeon Forge Airport
Sevierville, Tennessee, United States

Public forecast

Using degrees Fahrenheit for public forecast. Weather courtesy of forecast.io.

METAR (pilot weather report)

Retrieved 2019/07/20 05:35 UTC (0 seconds ago):

KGKT 200535Z AUTO 19004KT 10SM FEW045 FEW060 24/21 A3005 RMK A01

TAF (pilot weather forecast)

Forecast is more than 12 hours old.

Closest forecast is McGhee Tyson Airport, 22.8 nm (42.3 km) W. Retrieved 2019/07/19 00:22 UTC (1 day ago):

TAF KTYS 192320Z 2000/2024 VRB03KT P6SM FEW050 SCT250 FM200300 00000KT P6SM BKN250 FM201500 VRB04KT P6SM SCT045 SCT150